Time;durP1;ratioP1;P1;durP2;ratioP2;P2;SDS_P1;SDS_P2;PMS_P1;PMS_P2;Temp;Humidity;BMP_temperature;BMP_pressure;BME280_temperature;BME280_humidity;BME280_pressure;Samples;Min_cycle;Max_cycle;Signal;HPM_P1;HPM_P2
2022/09/02 00:00:07;;;;;;;;;;;;;;;;;;;;;
2022/09/02 00:03:23;;;;;;;;;;;;;;;;;;;;;
2022/09/02 00:10:02;;;;;;;;;;;;;;;;;;;;;
2022/09/02 00:16:09;;;;;;;;;;;;;;;;;;;;;
2022/09/02 00:25:20;;;;;;;;;6.00;6.00;;;;;24.59;38.11;100813.06;4892300;29;46657;-72
2022/09/02 00:31:36;;;;;;;;;;;;;;;;;;;;;
2022/09/02 00:34:35;;;;;;;;;;;;;;;;;;;;;
2022/09/02 00:54:35;;;;;;;;;;;;;;;;;;;;;
2022/09/02 00:58:03;;;;;;;;;;;;;;;;;;;;;
2022/09/02 01:01:25;;;;;;;;;;;;;;;;;;;;;
2022/09/02 01:11:05;;;;;;;;;;;;;;;;;;;;;
2022/09/02 01:14:15;;;;;;;;;;;;;;;;;;;;;
2022/09/02 01:17:20;;;;;;;;;8.50;8.00;;;;;24.38;38.61;100791.28;4894519;29;75343;-72
2022/09/02 01:23:51;;;;;;;;;;;;;;;;;;;;;
2022/09/02 01:26:41;;;;;;;;;;;;;;;;;;;;;
2022/09/02 01:30:00;;;;;;;;;;;;;;;;;;;;;
2022/09/02 01:33:22;;;;;;;;;;;;;;;;;;;;;
2022/09/02 01:39:47;;;;;;;;;;;;;;;;;;;;;
2022/09/02 01:56:53;;;;;;;;;;;;;;;;;;;;;
2022/09/02 02:00:03;;;;;;;;;;;;;;;;;;;;;
2022/09/02 02:09:48;;;;;;;;;;;;;;;;;;;;;
2022/09/02 02:13:13;;;;;;;;;;;;;;;;;;;;;
2022/09/02 02:16:47;;;;;;;;;;;;;;;;;;;;;
2022/09/02 02:19:58;;;;;;;;;;;;;;;;;;;;;
2022/09/02 02:22:31;;;;;;;;;6.50;5.75;;;;;24.04;39.65;100850.72;4903344;29;73858;-72
2022/09/02 02:29:03;;;;;;;;;;;;;;;;;;;;;
2022/09/02 02:32:09;;;;;;;;;;;;;;;;;;;;;
2022/09/02 02:35:00;;;;;;;;;9.25;8.75;;;;;24.05;40.60;100828.72;4888826;29;73780;-73
2022/09/02 02:41:46;;;;;;;;;;;;;;;;;;;;;
2022/09/02 02:45:11;;;;;;;;;;;;;;;;;;;;;
2022/09/02 02:48:12;;;;;;;;;;;;;;;;;;;;;
2022/09/02 02:54:17;;;;;;;;;;;;;;;;;;;;;
2022/09/02 02:57:42;;;;;;;;;;;;;;;;;;;;;
2022/09/02 03:03:58;;;;;;;;;9.50;9.50;;;;;23.93;41.29;100809.88;4873914;29;45338;-72
2022/09/02 03:06:43;;;;;;;;;8.50;8.50;;;;;23.76;41.23;100786.81;4882996;29;45551;-72
2022/09/02 03:09:44;;;;;;;;;7.25;6.25;;;;;23.74;41.38;100789.66;4884001;29;45480;-72
2022/09/02 03:16:25;;;;;;;;;;;;;;;;;;;;;
2022/09/02 03:19:12;;;;;;;;;;;;;;;;;;;;;
2022/09/02 03:22:28;;;;;;;;;;;;;;;;;;;;;
2022/09/02 03:25:25;;;;;;;;;14.75;14.75;;;;;23.66;41.76;100784.88;4874920;29;74149;-72
2022/09/02 03:28:31;;;;;;;;;;;;;;;;;;;;;
2022/09/02 03:34:48;;;;;;;;;;;;;;;;;;;;;
2022/09/02 03:47:54;;;;;;;;;;;;;;;;;;;;;
2022/09/02 03:50:57;;;;;;;;;22.50;22.00;;;;;23.27;42.27;100749.19;4881864;28;45437;-72
2022/09/02 03:54:03;;;;;;;;;19.75;17.00;;;;;23.45;42.42;100773.97;4876748;29;45370;-72
2022/09/02 04:00:14;;;;;;;;;;;;;;;;;;;;;
2022/09/02 04:09:40;;;;;;;;;18.50;16.75;;;;;22.99;43.46;100712.53;4874640;29;45386;-72
2022/09/02 04:12:33;;;;;;;;;;;;;;;;;;;;;
2022/09/02 04:32:06;;;;;;;;;;;;;;;;;;;;;
2022/09/02 04:35:15;;;;;;;;;14.75;10.50;;;;;23.02;45.04;100717.72;4901105;29;68671;-72
2022/09/02 04:45:16;;;;;;;;;;;;;;;;;;;;;
2022/09/02 04:48:34;;;;;;;;;12.00;11.75;;;;;22.96;46.25;100769.97;4866112;29;70460;-72
2022/09/02 04:58:05;;;;;;;;;9.25;9.00;;;;;23.05;48.22;100785.50;4858928;29;45659;-72
2022/09/02 05:01:20;;;;;;;;;;;;;;;;;;;;;
2022/09/02 05:10:52;;;;;;;;;11.25;11.25;;;;;22.61;49.67;100745.72;4891968;29;45392;-72
2022/09/02 05:17:04;;;;;;;;;9.00;9.00;;;;;22.29;50.83;100713.88;4902232;28;45591;-72
2022/09/02 05:33:29;;;;;;;;;;;;;;;;;;;;;
2022/09/02 05:43:59;;;;;;;;;;;;;;;;;;;;;
2022/09/02 05:50:41;;;;;;;;;;;;;;;;;;;;;
2022/09/02 05:57:11;;;;;;;;;;;;;;;;;;;;;
2022/09/02 06:09:19;;;;;;;;;15.25;14.00;;;;;21.57;50.24;100751.25;4889253;28;46504;-74
2022/09/02 06:11:53;;;;;;;;;13.75;13.75;;;;;21.41;50.14;100734.41;4900948;28;47014;-73
2022/09/02 06:14:23;;;;;;;;;11.50;11.50;;;;;21.33;50.66;100728.72;4890356;29;46295;-71
2022/09/02 06:16:53;;;;;;;;;13.25;11.00;;;;;21.32;50.45;100735.09;4904719;28;45355;-71
2022/09/02 06:19:18;;;;;;;;;12.25;12.25;;;;;21.37;51.32;100743.78;4917583;28;45352;-71
2022/09/02 06:21:52;;;;;;;;;17.00;13.50;;;;;21.29;50.86;100739.81;4901971;28;45754;-71
2022/09/02 06:24:21;;;;;;;;;15.75;14.25;;;;;21.51;50.95;100783.47;4903597;29;45375;-71
2022/09/02 06:26:46;;;;;;;;;12.25;12.00;;;;;21.37;51.19;100752.78;4904257;28;45560;-71
2022/09/02 06:29:12;;;;;;;;;12.00;12.00;;;;;21.33;50.90;100748.56;4884859;29;45596;-71
2022/09/02 06:31:44;;;;;;;;;13.75;13.75;;;;;21.21;50.72;100733.25;4912915;28;45950;-71
2022/09/02 06:34:13;;;;;;;;;15.00;12.50;;;;;21.38;51.22;100757.22;4874738;29;45479;-71
2022/09/02 06:36:56;;;;;;;;;15.25;13.25;;;;;21.05;51.50;100699.16;4901968;28;45182;-74
2022/09/02 06:39:45;;;;;;;;;12.50;12.25;;;;;20.98;51.36;100697.91;4899733;28;45600;-74
2022/09/02 06:42:20;;;;;;;;;13.25;12.75;;;;;20.92;51.67;100696.50;4903660;29;45692;-74
2022/09/02 06:44:48;;;;;;;;;14.50;14.00;;;;;20.97;51.47;100696.16;4886720;29;45413;-74
2022/09/02 06:47:16;;;;;;;;;11.25;11.25;;;;;20.94;51.83;100699.09;4898537;29;45610;-73
2022/09/02 06:50:40;;;;;;;;;;;;;;;;;;;;;
2022/09/02 06:57:43;;;;;;;;;;;;;;;;;;;;;
2022/09/02 07:13:16;;;;;;;;;13.75;13.75;;;;;21.07;51.34;100739.75;4880764;29;45455;-74
2022/09/02 07:16:11;;;;;;;;;;;;;;;;;;;;;
2022/09/02 07:19:34;;;;;;;;;8.75;8.75;;;;;20.90;51.29;100703.91;4881414;29;72672;-73
2022/09/02 07:27:57;;;;;;;;;11.75;11.50;;;;;21.11;50.84;100719.50;5055126;23;45378;-68
2022/09/02 07:30:24;;;;;;;;;10.50;8.75;;;;;21.12;50.82;100720.38;4867449;29;47298;-66
2022/09/02 07:32:49;;;;;;;;;10.75;9.50;;;;;21.05;51.10;100707.28;4882570;29;45639;-67
2022/09/02 07:35:15;;;;;;;;;10.00;9.50;;;;;21.18;50.81;100728.03;4882571;29;45887;-66
2022/09/02 07:37:40;;;;;;;;;14.50;11.00;;;;;21.32;50.53;100744.13;4850076;29;46060;-67
2022/09/02 07:40:07;;;;;;;;;11.25;11.25;;;;;21.16;50.20;100724.59;4852523;29;45350;-67
2022/09/02 07:42:36;;;;;;;;;9.00;8.25;;;;;21.32;50.04;100746.84;4847601;29;45462;-67
2022/09/02 07:45:01;;;;;;;;;9.75;9.75;;;;;21.20;50.26;100740.53;4863834;29;45518;-66
2022/09/02 07:47:27;;;;;;;;;10.00;10.00;;;;;21.26;50.45;100739.19;4864362;29;45499;-66
2022/09/02 07:49:52;;;;;;;;;8.50;8.50;;;;;21.14;50.20;100718.44;4864565;29;45504;-66
2022/09/02 07:52:17;;;;;;;;;11.00;10.00;;;;;21.20;50.16;100726.97;4865185;29;45229;-66
2022/09/02 07:54:44;;;;;;;;;9.25;9.25;;;;;21.25;49.65;100724.75;4866768;29;45434;-66
2022/09/02 07:57:09;;;;;;;;;8.75;8.75;;;;;21.18;49.53;100717.19;4864152;29;45428;-67
2022/09/02 07:59:35;;;;;;;;;10.50;10.50;;;;;21.38;49.32;100749.06;4864743;29;45772;-67
2022/09/02 08:02:00;;;;;;;;;13.00;11.50;;;;;21.30;49.50;100735.25;4846858;29;45272;-67
2022/09/02 08:04:25;;;;;;;;;8.50;7.25;;;;;21.45;49.24;100768.47;4863898;29;45567;-67
2022/09/02 08:06:55;;;;;;;;;8.50;8.25;;;;;21.50;49.58;100771.75;4863468;29;45602;-68
2022/09/02 08:09:21;;;;;;;;;10.50;10.25;;;;;21.43;48.95;100756.88;4864474;29;45454;-63
2022/09/02 08:11:49;;;;;;;;;9.00;9.00;;;;;21.43;48.67;100760.47;4864220;29;45592;-64
2022/09/02 08:14:18;;;;;;;;;11.75;10.75;;;;;21.53;49.19;100774.19;4860915;29;45320;-68
2022/09/02 08:16:45;;;;;;;;;10.00;10.00;;;;;21.63;49.20;100783.38;4863426;29;45382;-68
2022/09/02 08:19:11;;;;;;;;;11.25;11.00;;;;;21.51;48.46;100757.16;4862958;29;45445;-65
2022/09/02 08:21:36;;;;;;;;;9.75;9.75;;;;;21.68;48.79;100776.72;4847634;29;45454;-65
2022/09/02 08:24:02;;;;;;;;;9.00;9.00;;;;;21.53;49.12;100748.91;4868496;29;45469;-65
2022/09/02 08:26:28;;;;;;;;;8.75;8.75;;;;;21.55;49.44;100742.38;4869315;29;45569;-65
2022/09/02 08:28:54;;;;;;;;;12.25;10.00;;;;;21.88;49.33;100802.31;4863645;29;45532;-66
2022/09/02 08:31:20;;;;;;;;;10.50;9.50;;;;;21.78;49.31;100789.44;4864311;29;45336;-65
2022/09/02 08:33:46;;;;;;;;;9.00;8.50;;;;;21.96;49.01;100835.19;4863425;29;45683;-64
2022/09/02 08:36:13;;;;;;;;;13.25;10.50;;;;;21.84;49.26;100823.44;4868183;29;45492;-64
2022/09/02 08:38:43;;;;;;;;;9.25;9.00;;;;;21.86;48.83;100828.75;4859874;29;47450;-65
2022/09/02 08:41:46;;;;;;;;;8.75;8.75;;;;;22.06;48.92;100847.06;4857048;29;45430;-64
2022/09/02 08:44:22;;;;;;;;;13.75;9.50;;;;;21.94;48.82;100810.84;4837467;29;45529;-64
2022/09/02 08:46:55;;;;;;;;;10.50;10.50;;;;;22.05;49.23;100836.28;4864629;29;45416;-65
2022/09/02 08:49:43;;;;;;;;;13.00;11.00;;;;;22.09;49.78;100843.25;4847307;29;48956;-65
2022/09/02 08:52:16;;;;;;;;;13.25;12.00;;;;;22.19;50.01;100849.66;4853288;29;45391;-64
2022/09/02 08:54:54;;;;;;;;;11.00;11.00;;;;;22.14;49.90;100839.16;4839509;29;45468;-64
2022/09/02 08:57:24;;;;;;;;;14.50;14.00;;;;;22.21;49.91;100844.97;4846598;29;45724;-64
2022/09/02 08:59:49;;;;;;;;;12.00;10.50;;;;;22.09;51.31;100827.78;4858320;29;45571;-64
2022/09/02 09:02:30;;;;;;;;;17.00;13.75;;;;;22.14;51.14;100831.00;4864267;29;45527;-65
2022/09/02 09:05:05;;;;;;;;;11.75;10.75;;;;;22.27;51.06;100854.47;4853169;29;45562;-64
2022/09/02 09:07:39;;;;;;;;;10.00;9.00;;;;;22.27;51.09;100844.50;4861588;29;45470;-64
2022/09/02 09:10:10;;;;;;;;;12.00;11.00;;;;;22.18;50.96;100820.75;4863838;29;46558;-71
2022/09/02 09:13:10;;;;;;;;;12.25;11.25;;;;;22.20;51.74;100819.66;4869002;29;45457;-68
2022/09/02 09:16:11;;;;;;;;;9.00;9.00;;;;;22.30;51.50;100836.13;4870701;29;45424;-66
2022/09/02 09:18:46;;;;;;;;;13.50;11.50;;;;;22.26;51.31;100820.13;4858863;29;45588;-66
2022/09/02 09:21:13;;;;;;;;;13.50;13.25;;;;;22.17;51.18;100806.28;4865158;29;47180;-67
2022/09/02 09:23:39;;;;;;;;;13.25;12.00;;;;;22.26;51.41;100810.13;4853162;29;45651;-67
2022/09/02 09:26:08;;;;;;;;;13.75;13.25;;;;;22.38;50.81;100825.47;4864830;29;45438;-64
2022/09/02 09:28:48;;;;;;;;;11.00;10.25;;;;;22.15;50.62;100800.13;4865846;29;45398;-66
2022/09/02 09:31:17;;;;;;;;;11.00;10.50;;;;;22.40;51.33;100830.78;4863992;29;47117;-67
2022/09/02 09:33:58;;;;;;;;;12.75;10.75;;;;;22.44;50.67;100828.69;4866370;29;45906;-67
2022/09/02 09:36:43;;;;;;;;;13.00;12.00;;;;;22.46;50.73;100824.00;4861651;29;45461;-67
2022/09/02 09:39:35;;;;;;;;;10.25;10.00;;;;;22.49;50.58;100821.03;4844240;29;45636;-67
2022/09/02 09:42:06;;;;;;;;;12.25;10.00;;;;;22.49;50.14;100805.56;4842985;29;47032;-67
2022/09/02 09:44:43;;;;;;;;;9.75;9.75;;;;;22.52;49.99;100808.03;4844277;29;46159;-67
2022/09/02 09:47:18;;;;;;;;;14.75;12.00;;;;;22.45;50.34;100795.06;4862487;29;45532;-74
2022/09/02 09:49:51;;;;;;;;;12.00;10.75;;;;;22.41;50.12;100772.69;4858889;29;45519;-70
2022/09/02 09:52:24;;;;;;;;;11.75;11.00;;;;;22.55;49.52;100799.63;4844700;29;48482;-70
2022/09/02 09:55:10;;;;;;;;;11.25;11.25;;;;;22.51;50.34;100784.53;4866217;29;45403;-70
2022/09/02 09:57:37;;;;;;;;;11.50;11.50;;;;;22.55;50.05;100785.16;4851922;29;45469;-70
2022/09/02 10:00:11;;;;;;;;;11.50;11.25;;;;;22.61;49.88;100797.41;4862241;29;45340;-69
2022/09/02 10:02:49;;;;;;;;;17.25;13.25;;;;;22.46;50.03;100769.59;4867362;29;48291;-69
2022/09/02 10:05:23;;;;;;;;;11.50;11.25;;;;;22.69;49.70;100794.91;4863087;29;45658;-70
2022/09/02 10:08:01;;;;;;;;;11.50;10.75;;;;;22.52;49.20;100761.81;4858177;29;45612;-70
2022/09/02 10:10:29;;;;;;;;;14.00;11.00;;;;;22.61;49.38;100762.03;4863417;29;45532;-70
2022/09/02 10:12:59;;;;;;;;;11.25;11.00;;;;;22.62;49.38;100758.31;4847745;29;47116;-70
2022/09/02 10:15:34;;;;;;;;;13.75;11.25;;;;;22.69;49.56;100762.25;4865213;29;45504;-70
2022/09/02 10:18:15;;;;;;;;;11.25;11.00;;;;;22.86;49.32;100790.78;4864620;29;45538;-70
2022/09/02 10:20:59;;;;;;;;;12.00;11.50;;;;;22.81;49.59;100769.38;4857031;29;45441;-70
2022/09/02 10:24:04;;;;;;;;;12.50;12.50;;;;;22.75;49.03;100750.84;4861201;29;45376;-70
2022/09/02 10:26:36;;;;;;;;;12.75;12.75;;;;;22.94;49.62;100778.25;4863209;29;47070;-70
2022/09/02 10:29:38;;;;;;;;;12.00;11.50;;;;;22.98;49.49;100778.00;4863532;29;45339;-70
2022/09/02 10:32:28;;;;;;;;;13.75;13.25;;;;;23.00;49.07;100767.84;4864386;29;46322;-70
2022/09/02 10:35:16;;;;;;;;;13.00;13.00;;;;;23.01;49.32;100775.88;4864840;29;46394;-69
2022/09/02 10:37:51;;;;;;;;;14.75;13.00;;;;;22.81;49.32;100731.28;4863680;29;45566;-70
2022/09/02 10:40:27;;;;;;;;;13.75;13.75;;;;;22.98;49.90;100762.53;4864065;29;45362;-67
2022/09/02 10:43:07;;;;;;;;;14.50;14.00;;;;;23.04;49.14;100769.31;4864152;29;45308;-67
2022/09/02 10:45:39;;;;;;;;;11.75;11.50;;;;;23.03;49.71;100770.31;4863293;29;46616;-67
2022/09/02 10:48:13;;;;;;;;;14.50;14.25;;;;;22.92;49.70;100750.31;4863418;29;45864;-67
2022/09/02 10:50:47;;;;;;;;;14.50;14.00;;;;;23.03;49.57;100765.72;4858433;29;45527;-67
2022/09/02 10:53:35;;;;;;;;;16.25;15.50;;;;;22.94;50.29;100742.88;4860457;29;46077;-67
2022/09/02 10:56:02;;;;;;;;;12.75;12.75;;;;;23.10;50.37;100766.09;4854121;29;46229;-68
2022/09/02 10:58:43;;;;;;;;;14.00;14.00;;;;;23.07;50.27;100755.47;4860344;29;45711;-68
2022/09/02 11:01:17;;;;;;;;;12.25;10.50;;;;;23.11;50.36;100760.53;4858587;29;45563;-68
2022/09/02 11:04:07;;;;;;;;;14.50;13.75;;;;;23.12;50.98;100759.53;4860161;29;45905;-67
2022/09/02 11:06:39;;;;;;;;;18.00;15.75;;;;;23.05;50.41;100752.84;4861068;29;46852;-68
2022/09/02 11:09:14;;;;;;;;;16.50;15.50;;;;;23.10;50.60;100761.53;4855485;29;45531;-68
2022/09/02 11:11:48;;;;;;;;;16.00;16.00;;;;;23.02;50.63;100753.13;4857817;29;45741;-67
2022/09/02 11:14:24;;;;;;;;;18.25;14.25;;;;;23.02;50.73;100754.94;4847802;29;45823;-67
2022/09/02 11:16:55;;;;;;;;;20.00;17.25;;;;;22.99;50.33;100749.75;4864624;29;45523;-67
2022/09/02 11:19:34;;;;;;;;;11.75;11.50;;;;;22.96;52.02;100744.59;4876999;29;45454;-67
2022/09/02 11:22:08;;;;;;;;;21.50;17.50;;;;;22.93;51.31;100730.25;4862929;29;45721;-67
2022/09/02 11:24:46;;;;;;;;;17.75;16.75;;;;;22.75;51.53;100712.75;4861107;29;45469;-67
2022/09/02 11:27:32;;;;;;;;;19.00;15.50;;;;;22.91;51.28;100737.69;4864078;29;46391;-67
2022/09/02 11:30:12;;;;;;;;;18.75;18.75;;;;;22.89;51.23;100734.22;4863817;29;45907;-67
2022/09/02 11:32:49;;;;;;;;;17.50;16.25;;;;;22.85;50.89;100737.34;4864240;29;45864;-67
2022/09/02 11:35:25;;;;;;;;;21.00;16.75;;;;;22.74;50.62;100709.19;4864135;29;45444;-67
2022/09/02 11:37:59;;;;;;;;;20.00;17.25;;;;;22.79;51.80;100725.13;4864064;29;45737;-67
2022/09/02 11:40:27;;;;;;;;;18.25;15.25;;;;;22.78;51.16;100723.38;4862611;29;45710;-67
2022/09/02 11:43:40;;;;;;;;;18.75;18.25;;;;;22.56;51.85;100678.94;4862693;29;45411;-67
2022/09/02 11:46:24;;;;;;;;;23.25;21.75;;;;;22.77;51.84;100716.22;4803541;29;45483;-67
2022/09/02 11:48:58;;;;;;;;;20.25;20.25;;;;;22.72;51.66;100710.28;4851217;29;45428;-67
2022/09/02 11:51:45;;;;;;;;;15.75;15.75;;;;;22.67;51.55;100704.38;4863355;29;45637;-67
2022/09/02 11:54:15;;;;;;;;;20.50;18.50;;;;;22.61;52.21;100697.59;4864073;29;45615;-68
2022/09/02 11:56:44;;;;;;;;;17.00;16.75;;;;;22.57;52.62;100690.69;4862558;29;47024;-68
2022/09/02 11:59:43;;;;;;;;;21.00;16.25;;;;;22.60;52.41;100705.88;4850443;29;46418;-68
2022/09/02 12:02:10;;;;;;;;;15.00;13.25;;;;;22.56;53.04;100695.25;4863567;29;45571;-67
2022/09/02 12:04:35;;;;;;;;;20.25;19.25;;;;;22.51;53.49;100693.94;4862726;29;45665;-68
2022/09/02 12:07:07;;;;;;;;;20.75;19.50;;;;;22.57;53.53;100697.00;4861961;29;45453;-67
2022/09/02 12:09:54;;;;;;;;;16.75;13.50;;;;;22.55;52.65;100704.44;4863462;29;45472;-67
2022/09/02 12:12:35;;;;;;;;;17.50;16.25;;;;;22.52;53.47;100703.78;4863884;29;45292;-67
2022/09/02 12:15:04;;;;;;;;;17.00;17.00;;;;;22.52;54.00;100701.97;4864280;29;45539;-68
2022/09/02 12:17:38;;;;;;;;;18.00;16.00;;;;;22.53;53.96;100695.50;4864455;29;45440;-68
2022/09/02 12:20:10;;;;;;;;;14.00;13.75;;;;;22.52;54.09;100695.63;4862815;29;47151;-68
2022/09/02 12:22:38;;;;;;;;;15.50;15.00;;;;;22.56;53.53;100703.41;4861601;29;45521;-67
2022/09/02 12:25:23;;;;;;;;;18.50;17.00;;;;;22.57;53.31;100702.44;4833168;29;45672;-66
2022/09/02 12:27:49;;;;;;;;;16.25;15.00;;;;;22.58;53.15;100701.41;4856543;29;45710;-66
2022/09/02 12:30:53;;;;;;;;;14.25;14.25;;;;;22.58;52.92;100695.13;4859981;29;45934;-66
2022/09/02 12:33:29;;;;;;;;;15.50;15.00;;;;;22.58;53.36;100695.97;4865839;29;45845;-66
2022/09/02 12:35:57;;;;;;;;;16.00;15.25;;;;;22.60;53.41;100692.28;4859849;29;45517;-67
2022/09/02 12:38:30;;;;;;;;;15.50;15.50;;;;;22.62;53.77;100695.72;4842397;29;45934;-66
2022/09/02 12:41:04;;;;;;;;;12.25;12.00;;;;;22.63;53.60;100698.31;4860050;29;47058;-66
2022/09/02 12:43:50;;;;;;;;;12.25;12.00;;;;;22.62;53.48;100693.00;4860548;29;45787;-66
2022/09/02 12:46:42;;;;;;;;;15.50;12.00;;;;;22.62;52.81;100690.28;4860652;29;45485;-67
2022/09/02 12:49:40;;;;;;;;;11.75;11.75;;;;;22.62;52.72;100688.47;4862176;29;45776;-66
2022/09/02 12:52:10;;;;;;;;;12.00;11.00;;;;;22.63;53.40;100695.59;4853002;29;46229;-67
2022/09/02 12:54:47;;;;;;;;;11.75;11.75;;;;;22.67;53.56;100685.31;4863312;29;45427;-67
2022/09/02 12:57:15;;;;;;;;;9.00;9.00;;;;;22.72;53.63;100686.69;4863420;29;45440;-67
2022/09/02 12:59:43;;;;;;;;;10.00;10.00;;;;;22.76;53.87;100677.25;4863472;29;45489;-67
2022/09/02 13:02:46;;;;;;;;;12.00;11.00;;;;;22.79;53.07;100678.88;4871534;29;46346;-66
2022/09/02 13:05:27;;;;;;;;;11.50;11.50;;;;;22.80;52.83;100680.56;4860269;29;45514;-67
2022/09/02 13:08:28;;;;;;;;;12.00;10.50;;;;;22.82;52.79;100673.16;4863426;29;46023;-66
2022/09/02 13:11:31;;;;;;;;;10.25;9.50;;;;;22.86;53.14;100673.75;4863395;29;45609;-67
2022/09/02 13:14:38;;;;;;;;;11.75;10.25;;;;;22.87;53.12;100681.78;4860253;29;46477;-67
2022/09/02 13:17:15;;;;;;;;;12.25;12.25;;;;;22.90;53.56;100678.81;4853249;29;45855;-67
2022/09/02 13:20:18;;;;;;;;;11.50;11.25;;;;;22.94;53.54;100671.25;4863342;29;45530;-66
2022/09/02 13:23:21;;;;;;;;;13.50;13.50;;;;;23.00;53.56;100669.84;4858357;29;45529;-68
2022/09/02 13:26:11;;;;;;;;;14.75;14.00;;;;;23.01;52.61;100658.81;4866642;29;46141;-66
2022/09/02 13:29:19;;;;;;;;;13.50;13.50;;;;;23.04;52.89;100664.00;4842901;29;46000;-68
2022/09/02 13:32:10;;;;;;;;;16.00;14.75;;;;;23.04;52.68;100658.56;4812781;29;45441;-68
2022/09/02 13:34:43;;;;;;;;;19.25;18.25;;;;;23.00;52.93;100657.09;4839925;29;45574;-71
2022/09/02 13:37:29;;;;;;;;;18.75;14.75;;;;;23.04;53.75;100652.28;4846390;29;46195;-72
2022/09/02 13:39:54;;;;;;;;;13.00;13.00;;;;;22.99;53.44;100641.78;4842491;29;45651;-72
2022/09/02 13:42:24;;;;;;;;;12.50;12.50;;;;;22.89;53.03;100619.06;4847193;29;45439;-72
2022/09/02 13:44:49;;;;;;;;;14.75;12.50;;;;;22.87;52.93;100616.47;4845101;29;45530;-71
2022/09/02 13:47:21;;;;;;;;;11.00;11.00;;;;;22.94;53.21;100619.53;4846400;29;45555;-72
2022/09/02 13:49:50;;;;;;;;;12.00;11.00;;;;;23.12;53.64;100647.03;4846090;29;45561;-71
2022/09/02 13:52:19;;;;;;;;;13.00;12.75;;;;;22.84;53.21;100589.53;4846857;29;45423;-71
2022/09/02 13:54:48;;;;;;;;;11.75;11.25;;;;;23.03;53.55;100604.25;4846783;29;45516;-71
2022/09/02 13:57:21;;;;;;;;;11.50;11.00;;;;;23.19;53.20;100622.84;4845345;29;46360;-71
2022/09/02 13:59:49;;;;;;;;;13.75;13.75;;;;;23.13;53.17;100597.03;4845245;29;45408;-71
2022/09/02 14:02:30;;;;;;;;;16.00;14.75;;;;;23.20;53.60;100597.34;4847276;29;45651;-72
2022/09/02 14:05:15;;;;;;;;;13.00;13.00;;;;;23.31;53.70;100606.31;4843685;29;45567;-72
2022/09/02 14:07:45;;;;;;;;;14.25;12.25;;;;;23.33;53.16;100589.84;4843590;29;46570;-72
2022/09/02 14:10:15;;;;;;;;;10.25;9.75;;;;;23.55;53.34;100621.47;4846093;29;45329;-71
2022/09/02 14:12:43;;;;;;;;;12.00;11.00;;;;;23.55;52.41;100613.28;4844505;29;45571;-72
2022/09/02 14:15:13;;;;;;;;;8.00;8.00;;;;;23.65;52.46;100614.19;4859497;29;45417;-72
2022/09/02 14:17:39;;;;;;;;;10.00;10.00;;;;;23.64;52.30;100608.91;4844915;29;48237;-71
2022/09/02 14:20:14;;;;;;;;;12.00;10.75;;;;;23.67;52.08;100597.69;4844480;29;45424;-71
2022/09/02 14:22:40;;;;;;;;;5.00;5.00;;;;;23.62;51.75;100579.06;4844391;29;45469;-71
2022/09/02 14:25:14;;;;;;;;;10.00;9.25;;;;;23.55;51.57;100563.41;4843702;29;46044;-73
2022/09/02 14:27:54;;;;;;;;;7.25;7.25;;;;;23.63;51.94;100569.03;4844125;29;45747;-73
2022/09/02 14:30:26;;;;;;;;;9.00;7.25;;;;;23.84;52.06;100602.53;4855169;29;46034;-72
2022/09/02 14:33:16;;;;;;;;;8.25;7.00;;;;;23.84;51.57;100605.25;4867713;29;45441;-72
2022/09/02 14:35:57;;;;;;;;;8.25;7.00;;;;;23.65;51.86;100559.69;4860460;29;45488;-70
2022/09/02 14:38:24;;;;;;;;;10.25;9.75;;;;;23.87;52.06;100590.47;4861018;29;46397;-70
2022/09/02 14:40:58;;;;;;;;;10.00;10.00;;;;;23.93;51.77;100589.94;4846667;29;46032;-70
2022/09/02 14:43:24;;;;;;;;;9.25;9.25;;;;;23.77;52.13;100570.47;4846956;29;45814;-70
2022/09/02 14:45:50;;;;;;;;;11.50;9.50;;;;;23.72;52.17;100556.41;4863086;29;45494;-70
2022/09/02 14:48:24;;;;;;;;;7.00;7.00;;;;;23.64;51.40;100549.81;4845472;29;46921;-70
2022/09/02 14:50:59;;;;;;;;;10.25;9.75;;;;;23.68;51.90;100539.50;4862088;29;45651;-70
2022/09/02 14:53:25;;;;;;;;;8.25;8.25;;;;;23.79;51.90;100560.31;4864134;29;45638;-70
2022/09/02 14:55:53;;;;;;;;;8.25;8.25;;;;;23.88;52.06;100572.28;4861226;29;45493;-72
2022/09/02 14:58:21;;;;;;;;;8.75;8.75;;;;;23.88;51.58;100572.28;4862504;29;45593;-73
2022/09/02 15:00:54;;;;;;;;;12.25;11.50;;;;;23.76;51.77;100553.28;4862100;29;45414;-73
2022/09/02 15:03:20;;;;;;;;;10.00;8.00;;;;;23.96;51.56;100581.47;4864399;29;45597;-73
2022/09/02 15:05:46;;;;;;;;;10.50;10.00;;;;;23.87;52.01;100557.78;4861384;29;45541;-73
2022/09/02 15:08:13;;;;;;;;;9.50;8.00;;;;;23.92;51.58;100566.38;4863107;29;45509;-73
2022/09/02 15:10:39;;;;;;;;;10.75;10.00;;;;;24.06;51.94;100589.69;4860223;29;45655;-73
2022/09/02 15:13:10;;;;;;;;;8.25;8.25;;;;;23.90;51.75;100556.66;4862335;29;45424;-73
2022/09/02 15:15:37;;;;;;;;;10.25;9.00;;;;;23.86;52.19;100550.63;4842265;29;45618;-73
2022/09/02 15:18:03;;;;;;;;;9.50;9.50;;;;;23.98;51.92;100573.16;4864399;29;46334;-72
2022/09/02 15:20:29;;;;;;;;;9.75;8.25;;;;;23.92;51.83;100550.03;4845029;29;45415;-72
2022/09/02 15:22:55;;;;;;;;;7.25;6.25;;;;;23.94;52.16;100552.63;4866398;29;45388;-72
2022/09/02 15:25:20;;;;;;;;;9.00;8.25;;;;;23.84;51.54;100526.22;4861661;29;45567;-72
2022/09/02 15:27:46;;;;;;;;;7.50;7.50;;;;;23.98;51.63;100551.34;4861918;29;45497;-72
2022/09/02 15:30:11;;;;;;;;;7.50;7.50;;;;;24.05;51.55;100558.81;4843261;29;45558;-72
2022/09/02 15:32:37;;;;;;;;;9.00;8.25;;;;;24.01;51.53;100548.34;4845374;29;45356;-73
2022/09/02 15:35:03;;;;;;;;;7.00;7.00;;;;;24.05;51.84;100541.59;4841909;29;45786;-73
2022/09/02 15:37:29;;;;;;;;;8.00;7.50;;;;;24.18;51.45;100561.25;4843077;29;45572;-73
2022/09/02 15:39:54;;;;;;;;;7.50;7.50;;;;;24.00;51.52;100533.81;4838876;29;45398;-72
2022/09/02 15:42:20;;;;;;;;;7.50;6.75;;;;;23.99;51.06;100531.25;4843164;29;45342;-73
2022/09/02 15:44:45;;;;;;;;;8.00;7.25;;;;;23.99;51.16;100531.25;4846564;29;45451;-73
2022/09/02 15:47:10;;;;;;;;;7.25;7.25;;;;;24.00;51.08;100528.38;4842792;29;45508;-73
2022/09/02 15:49:36;;;;;;;;;8.00;6.00;;;;;24.09;50.92;100536.72;4842845;29;45509;-73
2022/09/02 15:52:02;;;;;;;;;8.25;7.50;;;;;24.23;50.79;100555.38;4841550;29;45487;-72
2022/09/02 15:54:28;;;;;;;;;9.50;8.50;;;;;24.11;50.99;100529.28;4841046;29;45539;-73
2022/09/02 15:56:56;;;;;;;;;8.50;8.50;;;;;24.25;51.23;100547.91;4841801;29;46254;-73
2022/09/02 15:59:22;;;;;;;;;9.50;8.50;;;;;24.11;51.58;100526.53;4842247;29;45618;-72
2022/09/02 16:01:50;;;;;;;;;8.00;8.00;;;;;24.10;51.66;100514.75;4842565;29;45616;-73
2022/09/02 16:04:16;;;;;;;;;8.00;7.50;;;;;24.01;52.00;100500.13;4843269;29;45600;-73
2022/09/02 16:06:44;;;;;;;;;9.00;9.00;;;;;23.97;52.13;100492.38;4842121;29;45614;-73
2022/09/02 16:09:12;;;;;;;;;8.25;8.25;;;;;24.07;52.25;100506.84;4838789;29;45827;-73
2022/09/02 16:11:49;;;;;;;;;6.00;5.75;;;;;24.21;51.72;100524.69;4843701;29;45660;-73
2022/09/02 16:14:16;;;;;;;;;10.00;9.00;;;;;24.30;51.80;100536.59;4843483;29;45593;-73
2022/09/02 16:16:41;;;;;;;;;11.00;8.50;;;;;24.29;51.50;100530.28;4839583;29;45523;-73
2022/09/02 16:19:08;;;;;;;;;7.50;7.50;;;;;24.16;51.87;100507.88;4840880;29;45514;-73
2022/09/02 16:21:34;;;;;;;;;7.00;6.50;;;;;24.19;51.20;100513.03;4838050;29;45754;-72
2022/09/02 16:23:59;;;;;;;;;7.75;7.75;;;;;24.14;50.75;100499.84;4844804;29;46804;-72
2022/09/02 16:26:30;;;;;;;;;6.00;6.00;;;;;24.24;50.50;100499.84;4846601;29;46191;-72
2022/09/02 16:29:07;;;;;;;;;6.75;6.75;;;;;24.21;50.21;100489.22;4864125;29;45727;-71
2022/09/02 16:31:34;;;;;;;;;9.00;7.25;;;;;24.40;50.75;100516.47;4864261;29;45502;-71
2022/09/02 16:34:02;;;;;;;;;7.50;7.50;;;;;24.42;51.00;100513.59;4862844;29;45559;-71
2022/09/02 16:36:30;;;;;;;;;7.25;6.25;;;;;24.23;51.25;100482.59;4847749;29;47180;-71
2022/09/02 16:38:56;;;;;;;;;7.25;7.00;;;;;24.40;50.62;100502.81;4865163;29;45630;-72
2022/09/02 16:41:35;;;;;;;;;6.00;6.00;;;;;24.46;50.92;100504.13;4864747;29;45452;-71
2022/09/02 16:44:05;;;;;;;;;5.50;4.50;;;;;24.27;50.44;100472.25;4856912;29;45492;-71
2022/09/02 16:46:32;;;;;;;;;4.50;4.50;;;;;24.29;50.60;100486.63;4852394;29;46152;-72
2022/09/02 16:48:57;;;;;;;;;6.50;6.50;;;;;24.27;50.51;100468.69;4864120;29;45864;-71